sensor_id;sensor_type;location;lat;lon;timestamp;P1;durP1;ratioP1;P2;durP2;ratioP2
12972;SDS011;6551;51.056;9.466;2022-11-15T00:00:49;8.43;;;3.80;;
12972;SDS011;6551;51.056;9.466;2022-11-15T00:03:16;7.23;;;4.07;;
12972;SDS011;6551;51.056;9.466;2022-11-15T00:05:45;8.27;;;4.03;;
12972;SDS011;6551;51.056;9.466;2022-11-15T00:08:11;7.67;;;4.13;;
12972;SDS011;6551;51.056;9.466;2022-11-15T00:10:36;6.40;;;3.80;;
12972;SDS011;6551;51.056;9.466;2022-11-15T00:13:09;5.17;;;3.97;;
12972;SDS011;6551;51.056;9.466;2022-11-15T00:15:40;5.33;;;3.77;;
12972;SDS011;6551;51.056;9.466;2022-11-15T00:18:09;5.70;;;4.10;;
12972;SDS011;6551;51.056;9.466;2022-11-15T00:20:40;4.87;;;3.37;;
12972;SDS011;6551;51.056;9.466;2022-11-15T00:23:08;5.60;;;3.77;;
12972;SDS011;6551;51.056;9.466;2022-11-15T00:25:33;6.63;;;3.87;;
12972;SDS011;6551;51.056;9.466;2022-11-15T00:27:59;8.77;;;4.00;;
12972;SDS011;6551;51.056;9.466;2022-11-15T00:30:26;5.00;;;3.67;;
12972;SDS011;6551;51.056;9.466;2022-11-15T00:32:52;7.77;;;3.53;;
12972;SDS011;6551;51.056;9.466;2022-11-15T00:35:19;4.70;;;3.33;;
12972;SDS011;6551;51.056;9.466;2022-11-15T00:37:45;5.30;;;3.50;;
12972;SDS011;6551;51.056;9.466;2022-11-15T00:40:12;6.73;;;3.60;;
12972;SDS011;6551;51.056;9.466;2022-11-15T00:42:39;5.67;;;3.40;;
12972;SDS011;6551;51.056;9.466;2022-11-15T00:45:05;6.87;;;3.50;;
12972;SDS011;6551;51.056;9.466;2022-11-15T00:47:31;8.80;;;3.40;;
12972;SDS011;6551;51.056;9.466;2022-11-15T00:49:57;5.23;;;3.40;;
12972;SDS011;6551;51.056;9.466;2022-11-15T00:52:23;7.37;;;3.30;;
12972;SDS011;6551;51.056;9.466;2022-11-15T00:54:48;4.07;;;3.30;;
12972;SDS011;6551;51.056;9.466;2022-11-15T00:57:14;5.93;;;3.50;;
12972;SDS011;6551;51.056;9.466;2022-11-15T00:59:40;5.47;;;3.63;;
12972;SDS011;6551;51.056;9.466;2022-11-15T01:02:05;5.87;;;3.23;;
12972;SDS011;6551;51.056;9.466;2022-11-15T01:04:31;3.63;;;3.13;;
12972;SDS011;6551;51.056;9.466;2022-11-15T01:06:57;5.47;;;3.30;;
12972;SDS011;6551;51.056;9.466;2022-11-15T01:09:22;3.60;;;2.93;;
12972;SDS011;6551;51.056;9.466;2022-11-15T01:11:48;5.60;;;3.20;;
12972;SDS011;6551;51.056;9.466;2022-11-15T01:14:14;5.17;;;3.23;;
12972;SDS011;6551;51.056;9.466;2022-11-15T01:16:39;4.23;;;3.10;;
12972;SDS011;6551;51.056;9.466;2022-11-15T01:19:05;4.63;;;3.17;;
12972;SDS011;6551;51.056;9.466;2022-11-15T01:21:31;4.57;;;3.10;;
12972;SDS011;6551;51.056;9.466;2022-11-15T01:23:57;4.47;;;3.13;;
12972;SDS011;6551;51.056;9.466;2022-11-15T01:26:23;4.27;;;2.90;;
12972;SDS011;6551;51.056;9.466;2022-11-15T01:28:49;8.43;;;3.53;;
12972;SDS011;6551;51.056;9.466;2022-11-15T01:31:17;4.73;;;3.10;;
12972;SDS011;6551;51.056;9.466;2022-11-15T01:33:45;7.03;;;3.50;;
12972;SDS011;6551;51.056;9.466;2022-11-15T01:36:13;7.63;;;3.53;;
12972;SDS011;6551;51.056;9.466;2022-11-15T01:38:42;4.30;;;3.60;;
12972;SDS011;6551;51.056;9.466;2022-11-15T01:41:17;3.97;;;3.00;;
12972;SDS011;6551;51.056;9.466;2022-11-15T01:43:54;6.27;;;3.33;;
12972;SDS011;6551;51.056;9.466;2022-11-15T01:48:49;5.27;;;3.30;;
12972;SDS011;6551;51.056;9.466;2022-11-15T01:51:19;6.13;;;3.33;;
12972;SDS011;6551;51.056;9.466;2022-11-15T01:53:49;4.47;;;3.00;;
12972;SDS011;6551;51.056;9.466;2022-11-15T01:56:21;3.73;;;3.00;;
12972;SDS011;6551;51.056;9.466;2022-11-15T01:58:53;5.07;;;3.13;;
12972;SDS011;6551;51.056;9.466;2022-11-15T02:01:22;4.90;;;2.97;;
12972;SDS011;6551;51.056;9.466;2022-11-15T02:04:01;4.63;;;3.00;;
12972;SDS011;6551;51.056;9.466;2022-11-15T02:06:40;6.17;;;3.47;;
12972;SDS011;6551;51.056;9.466;2022-11-15T02:09:08;7.17;;;3.13;;
12972;SDS011;6551;51.056;9.466;2022-11-15T02:11:34;5.50;;;3.17;;
12972;SDS011;6551;51.056;9.466;2022-11-15T02:14:00;5.87;;;3.53;;
12972;SDS011;6551;51.056;9.466;2022-11-15T02:34:00;10.50;;;3.43;;
12972;SDS011;6551;51.056;9.466;2022-11-15T02:39:34;5.90;;;3.37;;
12972;SDS011;6551;51.056;9.466;2022-11-15T02:42:13;5.70;;;3.10;;
12972;SDS011;6551;51.056;9.466;2022-11-15T02:45:05;5.53;;;3.20;;
12972;SDS011;6551;51.056;9.466;2022-11-15T02:47:37;4.30;;;3.40;;
12972;SDS011;6551;51.056;9.466;2022-11-15T02:50:10;4.50;;;3.40;;
12972;SDS011;6551;51.056;9.466;2022-11-15T02:52:38;5.53;;;3.40;;
12972;SDS011;6551;51.056;9.466;2022-11-15T02:55:04;4.80;;;3.30;;
12972;SDS011;6551;51.056;9.466;2022-11-15T02:57:38;6.37;;;3.37;;
12972;SDS011;6551;51.056;9.466;2022-11-15T03:00:21;6.37;;;3.27;;
12972;SDS011;6551;51.056;9.466;2022-11-15T03:03:09;5.77;;;3.80;;
12972;SDS011;6551;51.056;9.466;2022-11-15T03:11:27;8.80;;;3.50;;
12972;SDS011;6551;51.056;9.466;2022-11-15T03:13:58;4.57;;;3.40;;
12972;SDS011;6551;51.056;9.466;2022-11-15T03:22:14;5.47;;;3.57;;
12972;SDS011;6551;51.056;9.466;2022-11-15T03:24:45;5.63;;;3.40;;
12972;SDS011;6551;51.056;9.466;2022-11-15T03:27:17;6.63;;;3.90;;
12972;SDS011;6551;51.056;9.466;2022-11-15T03:29:50;6.73;;;4.00;;
12972;SDS011;6551;51.056;9.466;2022-11-15T03:32:26;8.43;;;3.90;;
12972;SDS011;6551;51.056;9.466;2022-11-15T03:35:01;7.00;;;3.77;;
12972;SDS011;6551;51.056;9.466;2022-11-15T03:37:37;6.63;;;3.70;;
12972;SDS011;6551;51.056;9.466;2022-11-15T03:40:39;7.87;;;3.57;;
12972;SDS011;6551;51.056;9.466;2022-11-15T03:46:55;6.63;;;3.67;;
12972;SDS011;6551;51.056;9.466;2022-11-15T03:49:17;7.33;;;3.37;;
12972;SDS011;6551;51.056;9.466;2022-11-15T03:51:50;5.80;;;3.20;;
12972;SDS011;6551;51.056;9.466;2022-11-15T03:54:16;8.40;;;3.80;;
12972;SDS011;6551;51.056;9.466;2022-11-15T03:56:42;5.53;;;3.63;;
12972;SDS011;6551;51.056;9.466;2022-11-15T03:59:08;7.87;;;3.70;;
12972;SDS011;6551;51.056;9.466;2022-11-15T04:01:33;5.23;;;3.30;;
12972;SDS011;6551;51.056;9.466;2022-11-15T04:03:59;5.17;;;3.43;;
12972;SDS011;6551;51.056;9.466;2022-11-15T04:06:25;5.63;;;3.60;;
12972;SDS011;6551;51.056;9.466;2022-11-15T04:08:50;5.30;;;3.47;;
12972;SDS011;6551;51.056;9.466;2022-11-15T04:11:16;5.50;;;3.47;;
12972;SDS011;6551;51.056;9.466;2022-11-15T04:13:41;4.30;;;3.50;;
12972;SDS011;6551;51.056;9.466;2022-11-15T04:16:07;4.87;;;3.07;;
12972;SDS011;6551;51.056;9.466;2022-11-15T04:18:32;6.07;;;3.00;;
12972;SDS011;6551;51.056;9.466;2022-11-15T04:20:58;5.07;;;3.23;;
12972;SDS011;6551;51.056;9.466;2022-11-15T04:23:43;6.63;;;3.10;;
12972;SDS011;6551;51.056;9.466;2022-11-15T04:26:27;4.63;;;3.17;;
12972;SDS011;6551;51.056;9.466;2022-11-15T04:28:53;6.47;;;3.30;;
12972;SDS011;6551;51.056;9.466;2022-11-15T04:31:37;3.63;;;2.97;;
12972;SDS011;6551;51.056;9.466;2022-11-15T04:34:03;3.97;;;3.00;;
12972;SDS011;6551;51.056;9.466;2022-11-15T04:36:28;6.70;;;3.50;;
12972;SDS011;6551;51.056;9.466;2022-11-15T04:39:12;5.13;;;3.60;;
12972;SDS011;6551;51.056;9.466;2022-11-15T04:41:38;6.63;;;3.43;;
12972;SDS011;6551;51.056;9.466;2022-11-15T04:44:04;4.97;;;2.80;;
12972;SDS011;6551;51.056;9.466;2022-11-15T04:46:29;4.13;;;2.90;;
12972;SDS011;6551;51.056;9.466;2022-11-15T04:48:55;3.87;;;2.70;;
12972;SDS011;6551;51.056;9.466;2022-11-15T04:51:21;5.20;;;2.70;;
12972;SDS011;6551;51.056;9.466;2022-11-15T04:53:47;5.97;;;3.00;;
12972;SDS011;6551;51.056;9.466;2022-11-15T04:56:12;6.83;;;3.27;;
12972;SDS011;6551;51.056;9.466;2022-11-15T04:58:38;4.47;;;2.93;;
12972;SDS011;6551;51.056;9.466;2022-11-15T05:01:07;4.07;;;2.93;;
12972;SDS011;6551;51.056;9.466;2022-11-15T05:03:39;4.03;;;3.00;;
12972;SDS011;6551;51.056;9.466;2022-11-15T05:06:28;6.43;;;3.10;;
12972;SDS011;6551;51.056;9.466;2022-11-15T05:08:54;4.40;;;2.90;;
12972;SDS011;6551;51.056;9.466;2022-11-15T05:11:20;3.43;;;2.93;;
12972;SDS011;6551;51.056;9.466;2022-11-15T05:13:46;6.90;;;2.87;;
12972;SDS011;6551;51.056;9.466;2022-11-15T05:16:12;5.70;;;3.10;;
12972;SDS011;6551;51.056;9.466;2022-11-15T05:18:38;4.10;;;2.80;;
12972;SDS011;6551;51.056;9.466;2022-11-15T05:21:11;5.07;;;2.83;;
12972;SDS011;6551;51.056;9.466;2022-11-15T05:23:39;5.00;;;3.07;;
12972;SDS011;6551;51.056;9.466;2022-11-15T05:26:06;6.37;;;3.33;;
12972;SDS011;6551;51.056;9.466;2022-11-15T05:28:33;6.63;;;3.20;;
12972;SDS011;6551;51.056;9.466;2022-11-15T05:31:01;5.00;;;3.17;;
12972;SDS011;6551;51.056;9.466;2022-11-15T05:33:30;4.60;;;3.10;;
12972;SDS011;6551;51.056;9.466;2022-11-15T05:39:07;7.50;;;2.83;;
12972;SDS011;6551;51.056;9.466;2022-11-15T05:41:35;4.83;;;3.23;;
12972;SDS011;6551;51.056;9.466;2022-11-15T05:44:12;7.97;;;3.37;;
12972;SDS011;6551;51.056;9.466;2022-11-15T05:46:41;7.17;;;3.30;;
12972;SDS011;6551;51.056;9.466;2022-11-15T05:49:10;5.40;;;3.10;;
12972;SDS011;6551;51.056;9.466;2022-11-15T05:51:40;6.57;;;3.10;;
12972;SDS011;6551;51.056;9.466;2022-11-15T05:54:09;4.53;;;3.30;;
12972;SDS011;6551;51.056;9.466;2022-11-15T05:56:36;6.13;;;3.40;;
12972;SDS011;6551;51.056;9.466;2022-11-15T05:59:02;4.83;;;3.17;;
12972;SDS011;6551;51.056;9.466;2022-11-15T06:01:29;5.73;;;3.17;;
12972;SDS011;6551;51.056;9.466;2022-11-15T06:03:55;5.87;;;2.83;;
12972;SDS011;6551;51.056;9.466;2022-11-15T06:06:20;5.80;;;3.13;;
12972;SDS011;6551;51.056;9.466;2022-11-15T06:08:46;4.23;;;3.03;;
12972;SDS011;6551;51.056;9.466;2022-11-15T06:11:12;6.97;;;3.50;;
12972;SDS011;6551;51.056;9.466;2022-11-15T06:13:38;6.47;;;3.37;;
12972;SDS011;6551;51.056;9.466;2022-11-15T06:16:04;7.00;;;3.40;;
12972;SDS011;6551;51.056;9.466;2022-11-15T06:18:33;4.70;;;3.10;;
12972;SDS011;6551;51.056;9.466;2022-11-15T06:21:00;6.40;;;3.03;;
12972;SDS011;6551;51.056;9.466;2022-11-15T06:23:26;4.83;;;2.80;;
12972;SDS011;6551;51.056;9.466;2022-11-15T06:25:53;5.97;;;3.23;;
12972;SDS011;6551;51.056;9.466;2022-11-15T06:28:22;5.50;;;3.37;;
12972;SDS011;6551;51.056;9.466;2022-11-15T06:30:47;5.60;;;3.30;;
12972;SDS011;6551;51.056;9.466;2022-11-15T06:33:13;6.13;;;2.93;;
12972;SDS011;6551;51.056;9.466;2022-11-15T06:35:39;5.80;;;3.20;;
12972;SDS011;6551;51.056;9.466;2022-11-15T06:38:05;4.87;;;3.07;;
12972;SDS011;6551;51.056;9.466;2022-11-15T06:40:34;4.27;;;3.20;;
12972;SDS011;6551;51.056;9.466;2022-11-15T06:43:02;5.17;;;2.93;;
12972;SDS011;6551;51.056;9.466;2022-11-15T06:45:29;6.67;;;3.70;;
12972;SDS011;6551;51.056;9.466;2022-11-15T06:47:55;5.77;;;3.30;;
12972;SDS011;6551;51.056;9.466;2022-11-15T06:50:21;4.67;;;3.10;;
12972;SDS011;6551;51.056;9.466;2022-11-15T06:52:47;4.87;;;3.13;;
12972;SDS011;6551;51.056;9.466;2022-11-15T06:55:14;4.17;;;2.83;;
12972;SDS011;6551;51.056;9.466;2022-11-15T06:57:46;5.90;;;3.23;;
12972;SDS011;6551;51.056;9.466;2022-11-15T07:00:17;4.33;;;2.87;;
12972;SDS011;6551;51.056;9.466;2022-11-15T07:02:45;5.43;;;3.20;;
12972;SDS011;6551;51.056;9.466;2022-11-15T07:05:12;5.27;;;3.30;;
12972;SDS011;6551;51.056;9.466;2022-11-15T07:07:38;4.17;;;2.80;;
12972;SDS011;6551;51.056;9.466;2022-11-15T07:10:05;5.90;;;3.07;;
12972;SDS011;6551;51.056;9.466;2022-11-15T07:12:32;6.43;;;3.20;;
12972;SDS011;6551;51.056;9.466;2022-11-15T07:14:58;11.07;;;2.93;;
12972;SDS011;6551;51.056;9.466;2022-11-15T07:17:24;6.93;;;3.00;;
12972;SDS011;6551;51.056;9.466;2022-11-15T07:19:49;5.77;;;2.90;;
12972;SDS011;6551;51.056;9.466;2022-11-15T07:22:15;3.47;;;2.80;;
12972;SDS011;6551;51.056;9.466;2022-11-15T07:24:40;4.87;;;2.77;;
12972;SDS011;6551;51.056;9.466;2022-11-15T07:27:06;9.53;;;3.67;;
12972;SDS011;6551;51.056;9.466;2022-11-15T07:29:32;5.37;;;2.80;;
12972;SDS011;6551;51.056;9.466;2022-11-15T07:31:58;4.37;;;2.90;;
12972;SDS011;6551;51.056;9.466;2022-11-15T07:34:23;4.33;;;3.00;;
12972;SDS011;6551;51.056;9.466;2022-11-15T07:36:49;3.57;;;2.63;;
12972;SDS011;6551;51.056;9.466;2022-11-15T07:39:15;5.23;;;3.10;;
12972;SDS011;6551;51.056;9.466;2022-11-15T07:41:41;5.57;;;2.80;;
12972;SDS011;6551;51.056;9.466;2022-11-15T07:44:08;4.23;;;2.87;;
12972;SDS011;6551;51.056;9.466;2022-11-15T07:46:34;5.67;;;2.90;;
12972;SDS011;6551;51.056;9.466;2022-11-15T07:48:59;4.73;;;3.20;;
12972;SDS011;6551;51.056;9.466;2022-11-15T07:51:25;6.00;;;3.17;;
12972;SDS011;6551;51.056;9.466;2022-11-15T07:53:51;4.97;;;2.80;;
12972;SDS011;6551;51.056;9.466;2022-11-15T07:56:16;4.90;;;3.30;;
12972;SDS011;6551;51.056;9.466;2022-11-15T07:58:42;5.83;;;2.70;;
12972;SDS011;6551;51.056;9.466;2022-11-15T08:01:10;5.80;;;3.17;;
12972;SDS011;6551;51.056;9.466;2022-11-15T08:03:35;5.53;;;2.50;;
12972;SDS011;6551;51.056;9.466;2022-11-15T08:06:02;7.30;;;2.60;;
12972;SDS011;6551;51.056;9.466;2022-11-15T08:08:29;5.47;;;2.50;;
12972;SDS011;6551;51.056;9.466;2022-11-15T08:10:54;4.53;;;2.57;;
12972;SDS011;6551;51.056;9.466;2022-11-15T08:13:23;5.13;;;2.30;;
12972;SDS011;6551;51.056;9.466;2022-11-15T08:15:49;5.93;;;2.13;;
12972;SDS011;6551;51.056;9.466;2022-11-15T08:18:16;6.93;;;2.67;;
12972;SDS011;6551;51.056;9.466;2022-11-15T08:20:42;3.40;;;2.30;;
12972;SDS011;6551;51.056;9.466;2022-11-15T08:23:09;2.40;;;2.10;;
12972;SDS011;6551;51.056;9.466;2022-11-15T08:25:37;5.77;;;2.40;;
12972;SDS011;6551;51.056;9.466;2022-11-15T08:28:04;3.80;;;2.27;;
12972;SDS011;6551;51.056;9.466;2022-11-15T08:30:38;4.10;;;2.13;;
12972;SDS011;6551;51.056;9.466;2022-11-15T08:33:09;8.13;;;2.47;;
12972;SDS011;6551;51.056;9.466;2022-11-15T08:35:37;4.07;;;2.30;;
12972;SDS011;6551;51.056;9.466;2022-11-15T08:38:03;4.63;;;2.63;;
12972;SDS011;6551;51.056;9.466;2022-11-15T08:40:29;3.27;;;2.17;;
12972;SDS011;6551;51.056;9.466;2022-11-15T08:42:55;3.30;;;2.23;;
12972;SDS011;6551;51.056;9.466;2022-11-15T08:45:20;3.03;;;2.13;;
12972;SDS011;6551;51.056;9.466;2022-11-15T08:47:46;5.23;;;2.03;;
12972;SDS011;6551;51.056;9.466;2022-11-15T08:50:12;3.27;;;1.90;;
12972;SDS011;6551;51.056;9.466;2022-11-15T08:52:37;3.20;;;2.23;;
12972;SDS011;6551;51.056;9.466;2022-11-15T08:55:03;4.43;;;2.17;;
12972;SDS011;6551;51.056;9.466;2022-11-15T08:57:30;4.40;;;2.23;;
12972;SDS011;6551;51.056;9.466;2022-11-15T08:59:55;5.50;;;2.13;;
12972;SDS011;6551;51.056;9.466;2022-11-15T09:02:22;6.53;;;2.57;;
12972;SDS011;6551;51.056;9.466;2022-11-15T09:04:47;3.07;;;1.80;;
12972;SDS011;6551;51.056;9.466;2022-11-15T09:07:13;3.57;;;2.10;;
12972;SDS011;6551;51.056;9.466;2022-11-15T09:09:39;3.23;;;2.10;;
12972;SDS011;6551;51.056;9.466;2022-11-15T09:12:05;3.43;;;1.80;;
12972;SDS011;6551;51.056;9.466;2022-11-15T09:14:32;2.40;;;1.90;;
12972;SDS011;6551;51.056;9.466;2022-11-15T09:16:58;5.63;;;1.90;;
12972;SDS011;6551;51.056;9.466;2022-11-15T09:19:24;3.83;;;2.20;;
12972;SDS011;6551;51.056;9.466;2022-11-15T09:21:50;3.90;;;1.90;;
12972;SDS011;6551;51.056;9.466;2022-11-15T09:24:16;2.73;;;1.90;;
12972;SDS011;6551;51.056;9.466;2022-11-15T09:26:42;2.10;;;1.90;;
12972;SDS011;6551;51.056;9.466;2022-11-15T09:29:08;4.03;;;2.10;;
12972;SDS011;6551;51.056;9.466;2022-11-15T09:31:34;2.40;;;1.67;;
12972;SDS011;6551;51.056;9.466;2022-11-15T09:34:00;2.87;;;1.90;;
12972;SDS011;6551;51.056;9.466;2022-11-15T09:36:26;4.30;;;2.20;;
12972;SDS011;6551;51.056;9.466;2022-11-15T09:38:52;2.90;;;1.60;;
12972;SDS011;6551;51.056;9.466;2022-11-15T09:41:22;3.43;;;1.90;;
12972;SDS011;6551;51.056;9.466;2022-11-15T09:50:07;2.80;;;1.90;;
12972;SDS011;6551;51.056;9.466;2022-11-15T09:52:39;3.73;;;1.60;;
12972;SDS011;6551;51.056;9.466;2022-11-15T09:55:12;5.30;;;2.23;;
12972;SDS011;6551;51.056;9.466;2022-11-15T09:58:03;2.33;;;1.53;;
12972;SDS011;6551;51.056;9.466;2022-11-15T10:00:54;4.23;;;2.10;;
12972;SDS011;6551;51.056;9.466;2022-11-15T10:03:27;2.50;;;1.90;;
12972;SDS011;6551;51.056;9.466;2022-11-15T10:06:00;3.70;;;2.00;;
12972;SDS011;6551;51.056;9.466;2022-11-15T10:11:39;3.23;;;1.93;;
12972;SDS011;6551;51.056;9.466;2022-11-15T10:14:13;4.27;;;2.00;;
12972;SDS011;6551;51.056;9.466;2022-11-15T10:19:47;3.30;;;1.70;;
12972;SDS011;6551;51.056;9.466;2022-11-15T10:22:41;3.77;;;1.80;;
12972;SDS011;6551;51.056;9.466;2022-11-15T10:27:50;3.43;;;2.07;;
12972;SDS011;6551;51.056;9.466;2022-11-15T10:30:29;3.60;;;1.97;;
12972;SDS011;6551;51.056;9.466;2022-11-15T10:49:21;3.17;;;1.37;;
12972;SDS011;6551;51.056;9.466;2022-11-15T10:51:57;3.23;;;1.93;;
12972;SDS011;6551;51.056;9.466;2022-11-15T10:57:13;2.57;;;1.70;;
12972;SDS011;6551;51.056;9.466;2022-11-15T10:59:52;5.00;;;1.80;;
12972;SDS011;6551;51.056;9.466;2022-11-15T11:04:54;4.57;;;2.00;;
12972;SDS011;6551;51.056;9.466;2022-11-15T11:07:21;3.10;;;2.03;;
12972;SDS011;6551;51.056;9.466;2022-11-15T11:09:56;5.43;;;2.00;;
12972;SDS011;6551;51.056;9.466;2022-11-15T11:12:30;2.80;;;1.80;;
12972;SDS011;6551;51.056;9.466;2022-11-15T11:14:59;3.63;;;1.80;;
12972;SDS011;6551;51.056;9.466;2022-11-15T11:20:41;5.10;;;1.93;;
12972;SDS011;6551;51.056;9.466;2022-11-15T11:33:29;2.97;;;1.60;;
12972;SDS011;6551;51.056;9.466;2022-11-15T11:38:56;2.93;;;1.57;;
12972;SDS011;6551;51.056;9.466;2022-11-15T11:44:36;3.67;;;1.40;;
12972;SDS011;6551;51.056;9.466;2022-11-15T11:50:40;2.33;;;1.70;;
12972;SDS011;6551;51.056;9.466;2022-11-15T11:53:11;2.07;;;1.80;;
12972;SDS011;6551;51.056;9.466;2022-11-15T11:55:54;11.87;;;7.37;;
12972;SDS011;6551;51.056;9.466;2022-11-15T11:58:34;4.23;;;2.77;;
12972;SDS011;6551;51.056;9.466;2022-11-15T12:06:22;3.73;;;2.30;;
12972;SDS011;6551;51.056;9.466;2022-11-15T12:12:13;2.83;;;2.03;;
12972;SDS011;6551;51.056;9.466;2022-11-15T12:14:50;2.63;;;2.37;;
12972;SDS011;6551;51.056;9.466;2022-11-15T12:17:23;3.20;;;2.13;;
12972;SDS011;6551;51.056;9.466;2022-11-15T12:19:56;3.97;;;1.80;;
12972;SDS011;6551;51.056;9.466;2022-11-15T12:22:33;3.60;;;1.80;;
12972;SDS011;6551;51.056;9.466;2022-11-15T12:25:20;5.60;;;2.17;;
12972;SDS011;6551;51.056;9.466;2022-11-15T12:34:01;2.13;;;1.50;;
12972;SDS011;6551;51.056;9.466;2022-11-15T12:36:42;1.90;;;1.50;;
12972;SDS011;6551;51.056;9.466;2022-11-15T12:39:09;5.33;;;2.00;;
12972;SDS011;6551;51.056;9.466;2022-11-15T12:41:41;4.50;;;2.00;;
12972;SDS011;6551;51.056;9.466;2022-11-15T12:44:10;4.77;;;1.80;;
12972;SDS011;6551;51.056;9.466;2022-11-15T12:46:58;4.17;;;1.97;;
12972;SDS011;6551;51.056;9.466;2022-11-15T12:52:03;2.23;;;1.60;;
12972;SDS011;6551;51.056;9.466;2022-11-15T13:02:24;2.00;;;1.80;;
12972;SDS011;6551;51.056;9.466;2022-11-15T13:17:57;2.93;;;2.20;;
12972;SDS011;6551;51.056;9.466;2022-11-15T13:20:31;5.40;;;2.20;;
12972;SDS011;6551;51.056;9.466;2022-11-15T13:23:11;5.33;;;1.73;;
12972;SDS011;6551;51.056;9.466;2022-11-15T13:25:55;2.90;;;1.83;;
12972;SDS011;6551;51.056;9.466;2022-11-15T13:28:42;1.90;;;1.60;;
12972;SDS011;6551;51.056;9.466;2022-11-15T13:31:26;4.53;;;2.00;;
12972;SDS011;6551;51.056;9.466;2022-11-15T13:33:56;3.97;;;1.63;;
12972;SDS011;6551;51.056;9.466;2022-11-15T13:36:30;4.87;;;1.87;;
12972;SDS011;6551;51.056;9.466;2022-11-15T13:39:01;7.17;;;1.67;;
12972;SDS011;6551;51.056;9.466;2022-11-15T13:41:31;6.73;;;1.90;;
12972;SDS011;6551;51.056;9.466;2022-11-15T13:44:00;4.03;;;2.13;;
12972;SDS011;6551;51.056;9.466;2022-11-15T13:46:28;3.63;;;1.77;;
12972;SDS011;6551;51.056;9.466;2022-11-15T13:49:00;2.87;;;1.97;;
12972;SDS011;6551;51.056;9.466;2022-11-15T13:59:48;4.43;;;1.57;;
12972;SDS011;6551;51.056;9.466;2022-11-15T14:02:52;3.37;;;1.83;;
12972;SDS011;6551;51.056;9.466;2022-11-15T14:07:52;2.90;;;1.60;;
12972;SDS011;6551;51.056;9.466;2022-11-15T14:10:45;2.63;;;1.70;;
12972;SDS011;6551;51.056;9.466;2022-11-15T14:18:47;4.30;;;1.70;;
12972;SDS011;6551;51.056;9.466;2022-11-15T14:21:16;6.17;;;1.80;;
12972;SDS011;6551;51.056;9.466;2022-11-15T14:23:43;2.67;;;1.77;;
12972;SDS011;6551;51.056;9.466;2022-11-15T14:26:32;5.10;;;1.93;;
12972;SDS011;6551;51.056;9.466;2022-11-15T14:29:44;7.40;;;1.90;;
12972;SDS011;6551;51.056;9.466;2022-11-15T14:31:53;4.90;;;1.97;;
12972;SDS011;6551;51.056;9.466;2022-11-15T14:35:12;2.67;;;1.43;;
12972;SDS011;6551;51.056;9.466;2022-11-15T14:37:42;4.13;;;1.57;;
12972;SDS011;6551;51.056;9.466;2022-11-15T14:40:11;3.03;;;1.80;;
12972;SDS011;6551;51.056;9.466;2022-11-15T14:42:46;1.93;;;1.70;;
12972;SDS011;6551;51.056;9.466;2022-11-15T14:45:15;3.27;;;1.63;;
12972;SDS011;6551;51.056;9.466;2022-11-15T14:47:46;4.83;;;2.10;;
12972;SDS011;6551;51.056;9.466;2022-11-15T14:50:13;1.80;;;1.53;;
12972;SDS011;6551;51.056;9.466;2022-11-15T14:52:42;5.27;;;2.07;;
12972;SDS011;6551;51.056;9.466;2022-11-15T14:57:57;5.57;;;2.23;;
12972;SDS011;6551;51.056;9.466;2022-11-15T15:00:28;2.80;;;1.67;;
12972;SDS011;6551;51.056;9.466;2022-11-15T15:02:57;2.00;;;1.60;;
12972;SDS011;6551;51.056;9.466;2022-11-15T15:05:30;3.13;;;1.73;;
12972;SDS011;6551;51.056;9.466;2022-11-15T15:08:02;4.50;;;1.80;;
12972;SDS011;6551;51.056;9.466;2022-11-15T15:10:31;2.63;;;1.70;;
12972;SDS011;6551;51.056;9.466;2022-11-15T15:13:00;2.53;;;1.97;;
12972;SDS011;6551;51.056;9.466;2022-11-15T15:15:29;4.67;;;1.80;;
12972;SDS011;6551;51.056;9.466;2022-11-15T15:18:02;4.73;;;1.70;;
12972;SDS011;6551;51.056;9.466;2022-11-15T15:20:30;4.30;;;1.77;;
12972;SDS011;6551;51.056;9.466;2022-11-15T15:23:00;3.47;;;1.70;;
12972;SDS011;6551;51.056;9.466;2022-11-15T15:25:27;6.00;;;2.27;;
12972;SDS011;6551;51.056;9.466;2022-11-15T15:27:56;3.03;;;1.70;;
12972;SDS011;6551;51.056;9.466;2022-11-15T15:30:23;3.53;;;2.13;;
12972;SDS011;6551;51.056;9.466;2022-11-15T15:32:50;3.33;;;1.83;;
12972;SDS011;6551;51.056;9.466;2022-11-15T15:35:17;2.70;;;1.60;;
12972;SDS011;6551;51.056;9.466;2022-11-15T15:37:44;2.00;;;1.70;;
12972;SDS011;6551;51.056;9.466;2022-11-15T15:42:42;3.27;;;2.00;;
12972;SDS011;6551;51.056;9.466;2022-11-15T15:45:08;2.80;;;1.90;;
12972;SDS011;6551;51.056;9.466;2022-11-15T15:47:35;3.17;;;2.03;;
12972;SDS011;6551;51.056;9.466;2022-11-15T15:50:02;2.47;;;1.70;;
12972;SDS011;6551;51.056;9.466;2022-11-15T15:52:37;4.23;;;2.00;;
12972;SDS011;6551;51.056;9.466;2022-11-15T15:55:03;3.10;;;1.67;;
12972;SDS011;6551;51.056;9.466;2022-11-15T15:57:29;3.37;;;1.93;;
12972;SDS011;6551;51.056;9.466;2022-11-15T15:59:54;8.10;;;1.63;;
12972;SDS011;6551;51.056;9.466;2022-11-15T16:02:20;3.80;;;1.87;;
12972;SDS011;6551;51.056;9.466;2022-11-15T16:04:46;3.03;;;1.93;;
12972;SDS011;6551;51.056;9.466;2022-11-15T16:07:15;4.37;;;2.00;;
12972;SDS011;6551;51.056;9.466;2022-11-15T16:09:46;2.13;;;1.60;;
12972;SDS011;6551;51.056;9.466;2022-11-15T16:12:33;2.17;;;1.60;;
12972;SDS011;6551;51.056;9.466;2022-11-15T16:15:00;3.37;;;2.10;;
12972;SDS011;6551;51.056;9.466;2022-11-15T16:17:29;3.77;;;1.90;;
12972;SDS011;6551;51.056;9.466;2022-11-15T16:20:00;4.00;;;1.83;;
12972;SDS011;6551;51.056;9.466;2022-11-15T16:22:26;4.33;;;2.23;;
12972;SDS011;6551;51.056;9.466;2022-11-15T16:24:53;5.10;;;1.80;;
12972;SDS011;6551;51.056;9.466;2022-11-15T16:27:21;4.20;;;1.83;;
12972;SDS011;6551;51.056;9.466;2022-11-15T16:29:49;3.67;;;1.93;;
12972;SDS011;6551;51.056;9.466;2022-11-15T16:32:15;2.10;;;1.63;;
12972;SDS011;6551;51.056;9.466;2022-11-15T16:34:41;3.27;;;1.53;;
12972;SDS011;6551;51.056;9.466;2022-11-15T16:37:23;4.27;;;2.20;;
12972;SDS011;6551;51.056;9.466;2022-11-15T16:43:29;3.47;;;1.50;;
12972;SDS011;6551;51.056;9.466;2022-11-15T16:45:56;3.97;;;2.00;;
12972;SDS011;6551;51.056;9.466;2022-11-15T16:48:27;4.20;;;1.97;;
12972;SDS011;6551;51.056;9.466;2022-11-15T16:50:56;5.93;;;2.10;;
12972;SDS011;6551;51.056;9.466;2022-11-15T16:53:23;3.27;;;1.77;;
12972;SDS011;6551;51.056;9.466;2022-11-15T16:55:51;4.00;;;2.10;;
12972;SDS011;6551;51.056;9.466;2022-11-15T16:58:17;3.90;;;1.73;;
12972;SDS011;6551;51.056;9.466;2022-11-15T17:00:42;2.30;;;1.80;;
12972;SDS011;6551;51.056;9.466;2022-11-15T17:03:08;2.80;;;1.90;;
12972;SDS011;6551;51.056;9.466;2022-11-15T17:05:34;4.03;;;1.73;;
12972;SDS011;6551;51.056;9.466;2022-11-15T17:08:00;3.67;;;2.00;;
12972;SDS011;6551;51.056;9.466;2022-11-15T17:10:26;6.63;;;2.10;;
12972;SDS011;6551;51.056;9.466;2022-11-15T17:12:52;4.27;;;2.20;;
12972;SDS011;6551;51.056;9.466;2022-11-15T17:15:20;2.30;;;1.80;;
12972;SDS011;6551;51.056;9.466;2022-11-15T17:17:52;3.63;;;1.70;;
12972;SDS011;6551;51.056;9.466;2022-11-15T17:20:20;3.00;;;1.83;;
12972;SDS011;6551;51.056;9.466;2022-11-15T17:22:48;2.97;;;1.77;;
12972;SDS011;6551;51.056;9.466;2022-11-15T17:25:14;2.97;;;2.00;;
12972;SDS011;6551;51.056;9.466;2022-11-15T17:27:40;2.27;;;1.90;;
12972;SDS011;6551;51.056;9.466;2022-11-15T17:30:06;2.43;;;1.70;;
12972;SDS011;6551;51.056;9.466;2022-11-15T17:32:35;2.73;;;1.93;;
12972;SDS011;6551;51.056;9.466;2022-11-15T17:35:01;3.07;;;1.63;;
12972;SDS011;6551;51.056;9.466;2022-11-15T17:37:28;3.17;;;1.87;;
12972;SDS011;6551;51.056;9.466;2022-11-15T17:39:53;2.83;;;1.73;;
12972;SDS011;6551;51.056;9.466;2022-11-15T17:42:19;2.37;;;1.60;;
12972;SDS011;6551;51.056;9.466;2022-11-15T17:44:45;3.10;;;1.70;;
12972;SDS011;6551;51.056;9.466;2022-11-15T17:47:11;2.80;;;2.17;;
12972;SDS011;6551;51.056;9.466;2022-11-15T17:49:37;2.80;;;1.90;;
12972;SDS011;6551;51.056;9.466;2022-11-15T17:52:04;3.07;;;1.80;;
12972;SDS011;6551;51.056;9.466;2022-11-15T17:54:31;2.10;;;1.80;;
12972;SDS011;6551;51.056;9.466;2022-11-15T17:56:56;3.77;;;2.00;;
12972;SDS011;6551;51.056;9.466;2022-11-15T17:59:22;4.17;;;2.00;;